createdAt,value
2022-11-15T00:01:01.683Z,82.72
2022-11-15T00:03:29.886Z,82.80
2022-11-15T00:06:03.552Z,85.57
2022-11-15T00:08:32.959Z,84.48
2022-11-15T00:11:02.118Z,83.10
2022-11-15T00:13:30.696Z,83.40
2022-11-15T00:15:59.225Z,85.21
2022-11-15T00:18:26.899Z,83.75
2022-11-15T00:20:54.584Z,86.70
2022-11-15T00:23:22.289Z,87.71
2022-11-15T00:25:57.392Z,85.89
2022-11-15T00:28:25.046Z,86.02
2022-11-15T00:30:52.842Z,85.53
2022-11-15T00:33:20.548Z,85.48
2022-11-15T00:35:48.256Z,84.96
2022-11-15T00:38:15.944Z,85.26
2022-11-15T00:40:43.648Z,85.14
2022-11-15T00:43:12.667Z,85.93
2022-11-15T00:45:40.362Z,85.63
2022-11-15T00:48:08.007Z,88.31
2022-11-15T00:50:35.636Z,89.10
2022-11-15T00:53:03.286Z,88.97
2022-11-15T00:55:30.942Z,89.40
2022-11-15T00:57:58.612Z,90.92
2022-11-15T01:00:27.662Z,92.33
2022-11-15T01:02:55.315Z,92.06
2022-11-15T01:05:23.188Z,93.45
2022-11-15T01:07:53.781Z,90.78
2022-11-15T01:10:21.435Z,90.33
2022-11-15T01:12:49.149Z,90.89
2022-11-15T01:15:16.925Z,92.71
2022-11-15T01:17:45.904Z,90.94
2022-11-15T01:20:14.281Z,94.19
2022-11-15T01:22:41.899Z,93.18
2022-11-15T01:25:09.813Z,94.40
2022-11-15T01:27:37.478Z,93.78
2022-11-15T01:30:06.297Z,97.47
2022-11-15T01:32:33.989Z,94.61
2022-11-15T01:35:02.981Z,96.95
2022-11-15T01:37:30.608Z,97.99
2022-11-15T01:39:58.265Z,97.67
2022-11-15T01:42:25.900Z,99.75
2022-11-15T01:44:55.762Z,100.00
2022-11-15T01:47:25.956Z,100.00
2022-11-15T01:49:59.110Z,100.00
2022-11-15T01:52:30.254Z,100.00
2022-11-15T01:55:02.596Z,100.00
2022-11-15T01:57:30.297Z,99.90
2022-11-15T01:59:59.412Z,99.42
2022-11-15T02:02:27.059Z,100.00
2022-11-15T02:04:54.860Z,100.00
2022-11-15T02:07:23.415Z,100.00
2022-11-15T02:09:52.982Z,100.00
2022-11-15T02:12:22.268Z,100.00
2022-11-15T02:14:51.778Z,100.00
2022-11-15T02:17:31.723Z,100.00
2022-11-15T02:20:16.363Z,100.00
2022-11-15T02:22:53.956Z,100.00
2022-11-15T02:25:40.288Z,100.00
2022-11-15T02:28:38.880Z,100.00
2022-11-15T02:31:13.363Z,100.00
2022-11-15T02:33:44.819Z,100.00
2022-11-15T02:36:15.674Z,100.00
2022-11-15T02:38:48.871Z,100.00
2022-11-15T02:41:19.357Z,100.00
2022-11-15T02:44:07.089Z,100.00
2022-11-15T02:46:56.761Z,100.00
2022-11-15T02:49:25.966Z,100.00
2022-11-15T02:51:54.596Z,100.00
2022-11-15T02:54:24.536Z,100.00
2022-11-15T02:56:54.227Z,100.00
2022-11-15T02:59:50.610Z,100.00
2022-11-15T03:02:33.534Z,100.00
2022-11-15T03:05:06.695Z,100.00
2022-11-15T03:07:37.808Z,100.00
2022-11-15T03:10:09.227Z,100.00
2022-11-15T03:12:40.121Z,100.00
2022-11-15T03:15:10.265Z,100.00
2022-11-15T03:17:42.427Z,100.00
2022-11-15T03:20:11.485Z,100.00
2022-11-15T03:22:41.507Z,100.00
2022-11-15T03:25:11.268Z,100.00
2022-11-15T03:27:41.335Z,100.00
2022-11-15T03:30:10.933Z,100.00
2022-11-15T03:32:42.809Z,100.00
2022-11-15T03:35:12.702Z,100.00
2022-11-15T03:37:43.660Z,100.00
2022-11-15T03:40:12.104Z,100.00
2022-11-15T03:42:43.883Z,100.00
2022-11-15T03:45:16.222Z,100.00
2022-11-15T03:47:49.579Z,100.00
2022-11-15T03:50:19.873Z,100.00
2022-11-15T03:52:48.989Z,100.00
2022-11-15T03:55:20.118Z,100.00
2022-11-15T03:57:49.399Z,100.00
2022-11-15T04:00:17.863Z,100.00
2022-11-15T04:02:46.860Z,100.00
2022-11-15T04:05:14.519Z,100.00
2022-11-15T04:07:42.175Z,100.00
2022-11-15T04:10:11.109Z,100.00
2022-11-15T04:12:41.627Z,100.00
2022-11-15T04:15:11.605Z,100.00
2022-11-15T04:17:41.086Z,100.00
2022-11-15T04:20:30.142Z,100.00
2022-11-15T04:23:16.088Z,100.00
2022-11-15T04:25:44.340Z,100.00
2022-11-15T04:28:12.344Z,100.00
2022-11-15T04:30:41.595Z,100.00
2022-11-15T04:33:09.253Z,100.00
2022-11-15T04:35:38.296Z,100.00
2022-11-15T04:38:07.458Z,100.00
2022-11-15T04:40:35.217Z,100.00
2022-11-15T04:43:04.174Z,100.00
2022-11-15T04:45:32.101Z,100.00
2022-11-15T04:47:59.707Z,100.00
2022-11-15T04:50:27.378Z,100.00
2022-11-15T04:52:56.470Z,100.00
2022-11-15T04:55:24.255Z,100.00
2022-11-15T04:58:00.572Z,100.00
2022-11-15T05:00:29.421Z,100.00
2022-11-15T05:03:14.989Z,100.00
2022-11-15T05:05:42.841Z,100.00
2022-11-15T05:08:11.855Z,100.00
2022-11-15T05:10:39.539Z,100.00
2022-11-15T05:13:07.161Z,100.00
2022-11-15T05:15:34.813Z,100.00
2022-11-15T05:18:02.508Z,100.00
2022-11-15T05:20:30.216Z,100.00
2022-11-15T05:22:57.874Z,100.00
2022-11-15T05:25:27.534Z,100.00
2022-11-15T05:27:55.211Z,100.00
2022-11-15T05:30:22.976Z,100.00
2022-11-15T05:32:50.853Z,100.00
2022-11-15T05:35:21.805Z,100.00
2022-11-15T05:37:50.102Z,100.00
2022-11-15T05:40:18.140Z,100.00
2022-11-15T05:42:48.632Z,100.00
2022-11-15T05:45:16.500Z,100.00
2022-11-15T05:47:44.233Z,100.00
2022-11-15T05:50:13.622Z,100.00
2022-11-15T05:52:41.340Z,100.00
2022-11-15T05:55:10.137Z,100.00
2022-11-15T05:57:38.103Z,100.00
2022-11-15T06:00:09.119Z,100.00
2022-11-15T06:02:36.838Z,100.00
2022-11-15T06:05:05.088Z,100.00
2022-11-15T06:07:32.833Z,100.00
2022-11-15T06:10:00.485Z,100.00
2022-11-15T06:12:28.216Z,100.00
2022-11-15T06:14:55.849Z,100.00
2022-11-15T06:17:24.909Z,100.00
2022-11-15T06:19:52.584Z,100.00
2022-11-15T06:22:20.288Z,100.00
2022-11-15T06:24:47.916Z,100.00
2022-11-15T06:27:15.728Z,100.00
2022-11-15T06:29:43.489Z,100.00
2022-11-15T06:32:11.422Z,100.00
2022-11-15T06:34:40.435Z,100.00
2022-11-15T06:37:08.056Z,100.00
2022-11-15T06:39:35.745Z,100.00
2022-11-15T06:42:03.392Z,100.00
2022-11-15T06:44:31.036Z,100.00
2022-11-15T06:46:58.720Z,100.00
2022-11-15T06:49:26.348Z,100.00
2022-11-15T06:51:55.336Z,100.00
2022-11-15T06:54:23.310Z,100.00
2022-11-15T06:56:51.305Z,100.00
2022-11-15T06:59:18.974Z,100.00
2022-11-15T07:01:46.658Z,100.00
2022-11-15T07:04:14.431Z,100.00
2022-11-15T07:06:42.080Z,100.00
2022-11-15T07:09:11.075Z,100.00
2022-11-15T07:11:38.738Z,100.00
2022-11-15T07:14:06.380Z,100.00
2022-11-15T07:16:34.047Z,100.00
2022-11-15T07:19:01.877Z,100.00
2022-11-15T07:21:29.589Z,100.00
2022-11-15T07:23:57.284Z,100.00
2022-11-15T07:26:26.360Z,100.00
2022-11-15T07:28:54.096Z,100.00
2022-11-15T07:31:21.885Z,100.00
2022-11-15T07:33:49.500Z,100.00
2022-11-15T07:36:17.132Z,100.00
2022-11-15T07:38:44.793Z,100.00
2022-11-15T07:41:12.423Z,100.00
2022-11-15T07:43:41.576Z,100.00
2022-11-15T07:46:10.846Z,100.00
2022-11-15T07:48:44.527Z,100.00
2022-11-15T07:51:14.863Z,100.00
2022-11-15T07:53:42.804Z,100.00
2022-11-15T07:56:11.076Z,100.00
2022-11-15T07:58:38.822Z,100.00
2022-11-15T08:01:08.998Z,100.00
2022-11-15T08:03:37.148Z,100.00
2022-11-15T08:06:05.141Z,100.00
2022-11-15T08:08:32.810Z,100.00
2022-11-15T08:11:00.478Z,100.00
2022-11-15T08:13:28.262Z,100.00
2022-11-15T08:16:00.029Z,100.00
2022-11-15T08:18:29.028Z,100.00
2022-11-15T08:21:00.849Z,100.00
2022-11-15T08:23:29.033Z,100.00
2022-11-15T08:26:01.384Z,100.00
2022-11-15T08:28:29.091Z,100.00
2022-11-15T08:30:56.718Z,100.00
2022-11-15T08:33:24.379Z,100.00
2022-11-15T08:35:53.392Z,100.00
2022-11-15T08:38:21.036Z,100.00
2022-11-15T08:40:48.705Z,100.00
2022-11-15T08:43:16.355Z,100.00
2022-11-15T08:45:44.021Z,100.00
2022-11-15T08:48:11.684Z,100.00
2022-11-15T08:50:39.444Z,100.00
2022-11-15T08:53:09.475Z,100.00
2022-11-15T08:55:38.672Z,100.00
2022-11-15T08:58:06.518Z,100.00
2022-11-15T09:00:35.179Z,100.00
2022-11-15T09:03:05.879Z,100.00
2022-11-15T09:05:33.560Z,100.00
2022-11-15T09:08:06.589Z,100.00
2022-11-15T09:10:42.801Z,100.00
2022-11-15T09:13:10.449Z,100.00
2022-11-15T09:15:38.107Z,100.00
2022-11-15T09:18:05.885Z,100.00
2022-11-15T09:20:34.144Z,100.00
2022-11-15T09:23:02.947Z,100.00
2022-11-15T09:25:30.912Z,100.00
2022-11-15T09:28:00.146Z,100.00
2022-11-15T09:30:27.848Z,100.00
2022-11-15T09:32:55.579Z,100.00
2022-11-15T09:35:23.223Z,100.00
2022-11-15T09:37:55.974Z,100.00
2022-11-15T09:40:24.533Z,100.00
2022-11-15T09:43:05.079Z,100.00
2022-11-15T09:45:36.531Z,100.00
2022-11-15T09:48:23.543Z,100.00
2022-11-15T09:50:54.379Z,100.00
2022-11-15T09:54:01.214Z,100.00
2022-11-15T09:56:18.865Z,100.00
2022-11-15T09:58:54.929Z,100.00
2022-11-15T10:01:30.835Z,100.00
2022-11-15T10:04:00.135Z,100.00
2022-11-15T10:06:28.718Z,100.00
2022-11-15T10:09:04.520Z,100.00
2022-11-15T10:11:38.995Z,100.00
2022-11-15T10:14:13.278Z,100.00
2022-11-15T10:17:10.281Z,100.00
2022-11-15T10:19:42.945Z,100.00
2022-11-15T10:22:20.714Z,100.00
2022-11-15T10:24:48.970Z,100.00
2022-11-15T10:27:18.355Z,100.00
2022-11-15T10:29:49.030Z,100.00
2022-11-15T10:32:20.354Z,100.00
2022-11-15T10:34:48.812Z,100.00
2022-11-15T10:37:16.698Z,100.00
2022-11-15T10:39:44.376Z,100.00
2022-11-15T10:42:19.605Z,100.00
2022-11-15T10:44:48.636Z,100.00
2022-11-15T10:47:28.158Z,100.00
2022-11-15T10:50:05.445Z,100.00
2022-11-15T10:52:35.497Z,100.00
2022-11-15T10:55:07.719Z,100.00
2022-11-15T10:57:38.504Z,100.00
2022-11-15T11:00:09.903Z,100.00
2022-11-15T11:02:39.171Z,100.00
2022-11-15T11:05:28.088Z,100.00
2022-11-15T11:07:59.525Z,100.00
2022-11-15T11:13:16.301Z,100.00
2022-11-15T11:15:47.413Z,100.00
2022-11-15T11:18:20.523Z,100.00
2022-11-15T11:20:52.087Z,100.00
2022-11-15T11:23:30.669Z,100.00
2022-11-15T11:26:31.804Z,100.00
2022-11-15T11:29:04.915Z,100.00
2022-11-15T11:31:38.601Z,96.31
2022-11-15T11:34:15.543Z,96.73
2022-11-15T11:36:48.062Z,93.21
2022-11-15T11:39:23.491Z,90.95
2022-11-15T11:41:59.285Z,92.06
2022-11-15T11:44:34.256Z,91.50
2022-11-15T11:47:04.069Z,93.69
2022-11-15T11:49:36.680Z,91.50
2022-11-15T11:52:11.137Z,88.07
2022-11-15T11:54:45.289Z,87.51
2022-11-15T11:57:17.426Z,86.49
2022-11-15T11:59:48.989Z,86.39
2022-11-15T12:02:22.286Z,84.63
2022-11-15T12:04:52.620Z,85.07
2022-11-15T12:07:25.448Z,86.32
2022-11-15T12:09:57.149Z,85.72
2022-11-15T12:12:32.320Z,84.96
2022-11-15T12:15:04.498Z,84.42
2022-11-15T12:17:34.156Z,79.40
2022-11-15T12:20:04.470Z,77.32
2022-11-15T12:22:39.052Z,79.25
2022-11-15T12:25:09.942Z,78.33
2022-11-15T12:27:40.683Z,77.65
2022-11-15T12:30:13.178Z,79.58
2022-11-15T12:32:52.238Z,78.06
2022-11-15T12:35:27.304Z,78.38
2022-11-15T12:37:58.374Z,76.88
2022-11-15T12:40:34.879Z,77.53
2022-11-15T12:43:35.056Z,76.28
2022-11-15T12:46:07.399Z,75.06
2022-11-15T12:49:01.001Z,77.12
2022-11-15T12:52:05.950Z,74.79
2022-11-15T12:54:55.573Z,76.11
2022-11-15T12:57:44.123Z,76.89
2022-11-15T13:00:44.693Z,76.09
2022-11-15T13:03:29.758Z,76.92
2022-11-15T13:06:05.213Z,75.59
2022-11-15T13:08:41.031Z,75.99
2022-11-15T13:11:41.964Z,76.61
2022-11-15T13:14:57.237Z,75.37
2022-11-15T13:17:30.875Z,74.06
2022-11-15T13:20:11.424Z,75.68
2022-11-15T13:22:55.432Z,74.50
2022-11-15T13:25:48.832Z,73.76
2022-11-15T13:28:23.885Z,73.61
2022-11-15T13:30:53.472Z,75.40
2022-11-15T13:33:23.032Z,75.08
2022-11-15T13:35:52.945Z,77.35
2022-11-15T13:38:28.432Z,75.39
2022-11-15T13:40:56.596Z,75.07
2022-11-15T13:43:31.408Z,75.29
2022-11-15T13:46:11.699Z,75.91
2022-11-15T13:48:39.875Z,74.40
2022-11-15T13:51:10.791Z,72.91
2022-11-15T13:53:42.700Z,75.17
2022-11-15T13:56:10.568Z,74.85
2022-11-15T13:58:39.793Z,74.11
2022-11-15T14:01:07.866Z,73.66
2022-11-15T14:03:38.565Z,74.13
2022-11-15T14:06:12.885Z,75.60
2022-11-15T14:08:42.630Z,73.40
2022-11-15T14:11:15.267Z,74.82
2022-11-15T14:13:43.174Z,75.93
2022-11-15T14:16:18.425Z,75.23
2022-11-15T14:18:48.530Z,75.45
2022-11-15T14:21:16.608Z,74.74
2022-11-15T14:23:45.985Z,74.30
2022-11-15T14:26:29.640Z,73.61
2022-11-15T14:28:57.311Z,74.17
2022-11-15T14:31:24.953Z,73.70
2022-11-15T14:33:52.612Z,73.38
2022-11-15T14:36:21.884Z,73.05
2022-11-15T14:38:51.216Z,73.46
2022-11-15T14:41:23.862Z,73.34
2022-11-15T14:43:52.226Z,73.99
2022-11-15T14:46:19.970Z,72.18
2022-11-15T14:48:47.712Z,71.46
2022-11-15T14:51:17.765Z,71.31
2022-11-15T14:53:46.479Z,71.13
2022-11-15T14:56:17.103Z,69.54
2022-11-15T14:58:44.832Z,69.42
2022-11-15T15:01:15.423Z,70.37
2022-11-15T15:03:44.978Z,69.38
2022-11-15T15:06:18.039Z,69.23
2022-11-15T15:08:46.430Z,69.85
2022-11-15T15:11:17.243Z,69.62
2022-11-15T15:13:44.921Z,69.42
2022-11-15T15:16:12.599Z,70.05
2022-11-15T15:18:40.223Z,68.97
2022-11-15T15:21:20.943Z,68.71
2022-11-15T15:23:48.663Z,69.17
2022-11-15T15:26:17.729Z,69.38
2022-11-15T15:28:45.501Z,70.29
2022-11-15T15:31:13.205Z,70.84
2022-11-15T15:33:40.839Z,71.27
2022-11-15T15:36:11.631Z,71.18
2022-11-15T15:38:40.667Z,71.81
2022-11-15T15:41:11.615Z,72.11
2022-11-15T15:43:41.309Z,72.07
2022-11-15T15:46:10.931Z,70.63
2022-11-15T15:48:40.329Z,70.66
2022-11-15T15:51:15.514Z,69.88
2022-11-15T15:53:47.419Z,69.53
2022-11-15T15:56:15.312Z,69.48
2022-11-15T15:58:44.379Z,70.01
2022-11-15T16:01:12.063Z,68.73
2022-11-15T16:03:39.764Z,68.35
2022-11-15T16:06:39.012Z,67.00
2022-11-15T16:09:16.178Z,68.82
2022-11-15T16:11:46.364Z,67.86
2022-11-15T16:14:15.423Z,68.52
2022-11-15T16:16:43.089Z,69.61
2022-11-15T16:19:11.345Z,68.88
2022-11-15T16:21:39.000Z,68.98
2022-11-15T16:24:06.846Z,69.52
2022-11-15T16:26:35.093Z,69.21
2022-11-15T16:29:02.752Z,68.87
2022-11-15T16:31:31.795Z,68.06
2022-11-15T16:33:59.430Z,68.14
2022-11-15T16:36:31.253Z,67.57
2022-11-15T16:38:59.200Z,67.91
2022-11-15T16:41:27.121Z,68.05
2022-11-15T16:43:54.793Z,67.21
2022-11-15T16:46:23.315Z,68.30
2022-11-15T16:48:52.572Z,68.21
2022-11-15T16:51:20.224Z,67.95
2022-11-15T16:53:49.153Z,69.38
2022-11-15T16:56:22.913Z,68.35
2022-11-15T16:58:50.559Z,68.03
2022-11-15T17:01:21.091Z,66.59
2022-11-15T17:03:48.794Z,67.49
2022-11-15T17:06:18.659Z,66.92
2022-11-15T17:08:46.993Z,67.94
2022-11-15T17:11:16.663Z,67.00
2022-11-15T17:13:44.556Z,66.71
2022-11-15T17:16:14.290Z,67.90
2022-11-15T17:18:44.987Z,67.97
2022-11-15T17:21:14.893Z,67.98
2022-11-15T17:23:44.119Z,67.69
2022-11-15T17:26:28.687Z,66.77
2022-11-15T17:28:59.177Z,67.01
2022-11-15T17:31:27.054Z,67.87
2022-11-15T17:33:54.864Z,66.38
2022-11-15T17:36:22.804Z,66.43
2022-11-15T17:38:58.084Z,66.19
2022-11-15T17:41:27.703Z,66.88
2022-11-15T17:43:57.934Z,65.99
2022-11-15T17:46:26.132Z,66.78
2022-11-15T17:48:53.787Z,66.21
2022-11-15T17:51:23.036Z,66.60
2022-11-15T17:53:52.934Z,67.28
2022-11-15T17:56:21.905Z,68.77
2022-11-15T17:58:50.400Z,66.99
2022-11-15T18:01:20.397Z,66.93
2022-11-15T18:03:48.691Z,67.69
2022-11-15T18:06:17.006Z,68.25
2022-11-15T18:08:46.453Z,68.09
2022-11-15T18:11:17.321Z,67.61
2022-11-15T18:13:51.923Z,66.55
2022-11-15T18:16:21.559Z,65.33
2022-11-15T18:18:49.404Z,66.23
2022-11-15T18:21:18.517Z,65.92
2022-11-15T18:23:46.784Z,66.65
2022-11-15T18:26:17.041Z,67.18
2022-11-15T18:28:46.997Z,67.67
2022-11-15T18:31:15.912Z,67.04
2022-11-15T18:33:43.959Z,67.45
2022-11-15T18:36:13.904Z,66.14
2022-11-15T18:38:41.707Z,66.19
2022-11-15T18:41:10.650Z,66.25
2022-11-15T18:43:40.525Z,66.09
2022-11-15T18:46:09.993Z,65.69
2022-11-15T18:48:39.688Z,66.01
2022-11-15T18:51:08.336Z,65.55
2022-11-15T18:53:37.112Z,65.41
2022-11-15T18:56:06.792Z,66.55
2022-11-15T18:58:35.995Z,66.30
2022-11-15T19:01:06.649Z,66.72
2022-11-15T19:03:35.792Z,67.69
2022-11-15T19:06:04.905Z,66.52
2022-11-15T19:08:35.396Z,66.96
2022-11-15T19:11:05.024Z,67.05
2022-11-15T19:13:33.370Z,67.96
2022-11-15T19:16:02.649Z,67.96
2022-11-15T19:18:32.336Z,68.55
2022-11-15T19:21:03.331Z,68.60
2022-11-15T19:23:34.496Z,67.82
2022-11-15T19:26:03.898Z,67.65
2022-11-15T19:28:32.089Z,68.98
2022-11-15T19:31:04.867Z,69.46
2022-11-15T19:33:34.423Z,68.63
2022-11-15T19:36:02.614Z,69.37
2022-11-15T19:38:31.780Z,70.42
2022-11-15T19:41:00.437Z,69.10
2022-11-15T19:43:28.925Z,69.64
2022-11-15T19:46:02.085Z,69.86
2022-11-15T19:48:31.614Z,70.56
2022-11-15T19:51:03.041Z,71.16
2022-11-15T19:53:35.138Z,70.96
2022-11-15T19:56:04.453Z,72.55
2022-11-15T19:58:33.887Z,74.27
2022-11-15T20:01:03.124Z,76.07
2022-11-15T20:03:31.614Z,76.21
2022-11-15T20:06:04.812Z,76.32
2022-11-15T20:08:32.914Z,77.13
2022-11-15T20:11:01.373Z,80.02
2022-11-15T20:13:29.335Z,81.52
2022-11-15T20:15:57.553Z,80.72
2022-11-15T20:18:26.447Z,80.35
2022-11-15T20:20:55.199Z,81.29
2022-11-15T20:23:24.216Z,83.22
2022-11-15T20:25:51.881Z,84.26
2022-11-15T20:28:21.181Z,82.05
2022-11-15T20:30:49.500Z,83.91
2022-11-15T20:33:17.163Z,86.31
2022-11-15T20:35:45.170Z,85.45
2022-11-15T20:38:13.236Z,86.68
2022-11-15T20:40:42.624Z,87.10
2022-11-15T20:43:13.042Z,89.49
2022-11-15T20:45:40.690Z,88.65
2022-11-15T20:48:08.392Z,89.46
2022-11-15T20:50:42.746Z,87.55
2022-11-15T20:53:12.511Z,88.89
2022-11-15T20:55:42.309Z,88.98
2022-11-15T20:58:10.827Z,88.05
2022-11-15T21:00:38.945Z,88.85
2022-11-15T21:03:07.045Z,87.30
2022-11-15T21:05:35.399Z,87.68
2022-11-15T21:08:03.131Z,85.78
2022-11-15T21:10:48.520Z,87.06
2022-11-15T21:13:17.587Z,86.38
2022-11-15T21:15:45.239Z,86.34
2022-11-15T21:18:13.261Z,89.38
2022-11-15T21:20:41.368Z,88.05
2022-11-15T21:23:09.149Z,87.00
2022-11-15T21:25:36.816Z,87.51
2022-11-15T21:28:04.620Z,87.17
2022-11-15T21:30:33.621Z,87.88
2022-11-15T21:33:01.288Z,89.43
2022-11-15T21:35:29.328Z,87.42
2022-11-15T21:37:57.346Z,87.74
2022-11-15T21:40:25.132Z,87.70
2022-11-15T21:42:52.753Z,87.52
2022-11-15T21:45:20.400Z,89.11
2022-11-15T21:47:49.368Z,88.55
2022-11-15T21:50:17.608Z,86.70
2022-11-15T21:52:46.917Z,86.95
2022-11-15T21:55:14.655Z,88.74
2022-11-15T21:57:42.339Z,90.07
2022-11-15T22:00:28.456Z,90.51
2022-11-15T22:02:57.441Z,91.61
2022-11-15T22:05:25.156Z,92.89
2022-11-15T22:07:52.820Z,91.14
2022-11-15T22:10:20.521Z,92.91
2022-11-15T22:12:48.128Z,94.43
2022-11-15T22:15:15.808Z,93.61
2022-11-15T22:17:58.764Z,95.51
2022-11-15T22:20:43.940Z,95.19
2022-11-15T22:23:12.565Z,98.12
2022-11-15T22:25:41.302Z,96.91
2022-11-15T22:28:09.073Z,95.54
2022-11-15T22:30:36.868Z,96.21
2022-11-15T22:33:04.674Z,98.02
2022-11-15T22:35:35.292Z,98.61
2022-11-15T22:38:03.321Z,99.52
2022-11-15T22:40:31.247Z,100.00
2022-11-15T22:42:59.017Z,99.76
2022-11-15T22:45:26.841Z,99.30
2022-11-15T22:47:54.623Z,98.35
2022-11-15T22:50:24.031Z,97.82
2022-11-15T22:52:53.330Z,100.00
2022-11-15T22:55:21.127Z,100.00
2022-11-15T22:57:48.916Z,100.00
2022-11-15T23:00:18.584Z,100.00
2022-11-15T23:02:49.527Z,100.00
2022-11-15T23:05:19.624Z,100.00
2022-11-15T23:07:47.400Z,100.00
2022-11-15T23:10:33.247Z,100.00
2022-11-15T23:13:19.489Z,100.00
2022-11-15T23:16:06.577Z,100.00
2022-11-15T23:18:35.649Z,100.00
2022-11-15T23:21:10.011Z,100.00
2022-11-15T23:23:36.800Z,100.00
2022-11-15T23:26:06.397Z,100.00
2022-11-15T23:28:35.346Z,100.00
2022-11-15T23:31:22.239Z,100.00
2022-11-15T23:33:58.960Z,100.00
2022-11-15T23:36:27.368Z,100.00
2022-11-15T23:38:55.140Z,100.00
2022-11-15T23:41:24.864Z,100.00
2022-11-15T23:43:52.876Z,100.00
2022-11-15T23:46:20.785Z,100.00
2022-11-15T23:48:48.585Z,100.00
2022-11-15T23:51:16.403Z,100.00
2022-11-15T23:53:44.200Z,100.00
2022-11-15T23:56:13.563Z,100.00
2022-11-15T23:58:43.271Z,100.00
